sensor_id;sensor_type;location;lat;lon;timestamp;P1;durP1;ratioP1;P2;durP2;ratioP2
15067;SDS011;7633;60.024;18.770;2023-03-25T00:01:04;0.17;;;0.10;;
15067;SDS011;7633;60.024;18.770;2023-03-25T00:03:33;0.20;;;0.20;;
15067;SDS011;7633;60.024;18.770;2023-03-25T00:05:59;0.10;;;0.10;;
15067;SDS011;7633;60.024;18.770;2023-03-25T00:08:25;0.10;;;0.10;;
15067;SDS011;7633;60.024;18.770;2023-03-25T00:10:51;0.20;;;0.20;;
15067;SDS011;7633;60.024;18.770;2023-03-25T00:13:17;0.30;;;0.30;;
15067;SDS011;7633;60.024;18.770;2023-03-25T00:15:42;0.23;;;0.23;;
15067;SDS011;7633;60.024;18.770;2023-03-25T00:18:11;0.10;;;0.10;;
15067;SDS011;7633;60.024;18.770;2023-03-25T00:20:39;0.23;;;0.23;;
15067;SDS011;7633;60.024;18.770;2023-03-25T00:23:05;0.20;;;0.20;;
15067;SDS011;7633;60.024;18.770;2023-03-25T00:25:31;1.10;;;0.30;;
15067;SDS011;7633;60.024;18.770;2023-03-25T00:28:02;0.20;;;0.20;;
15067;SDS011;7633;60.024;18.770;2023-03-25T00:30:28;0.70;;;0.30;;
15067;SDS011;7633;60.024;18.770;2023-03-25T00:32:54;0.40;;;0.40;;
15067;SDS011;7633;60.024;18.770;2023-03-25T00:35:21;0.20;;;0.20;;
15067;SDS011;7633;60.024;18.770;2023-03-25T00:37:50;0.27;;;0.27;;
15067;SDS011;7633;60.024;18.770;2023-03-25T00:40:28;0.70;;;0.30;;
15067;SDS011;7633;60.024;18.770;2023-03-25T00:42:54;0.97;;;0.30;;
15067;SDS011;7633;60.024;18.770;2023-03-25T00:45:30;0.30;;;0.30;;
15067;SDS011;7633;60.024;18.770;2023-03-25T00:47:57;0.37;;;0.37;;
15067;SDS011;7633;60.024;18.770;2023-03-25T00:50:23;0.20;;;0.20;;
15067;SDS011;7633;60.024;18.770;2023-03-25T00:52:52;0.30;;;0.30;;
15067;SDS011;7633;60.024;18.770;2023-03-25T00:55:18;0.87;;;0.70;;
15067;SDS011;7633;60.024;18.770;2023-03-25T00:57:47;1.33;;;0.40;;
15067;SDS011;7633;60.024;18.770;2023-03-25T01:00:15;0.40;;;0.40;;
15067;SDS011;7633;60.024;18.770;2023-03-25T01:02:41;0.30;;;0.30;;
15067;SDS011;7633;60.024;18.770;2023-03-25T01:05:12;0.60;;;0.50;;
15067;SDS011;7633;60.024;18.770;2023-03-25T01:07:38;1.50;;;0.60;;
15067;SDS011;7633;60.024;18.770;2023-03-25T01:10:08;0.50;;;0.50;;
15067;SDS011;7633;60.024;18.770;2023-03-25T01:12:35;0.53;;;0.50;;
15067;SDS011;7633;60.024;18.770;2023-03-25T01:15:01;0.43;;;0.43;;
15067;SDS011;7633;60.024;18.770;2023-03-25T01:17:28;0.80;;;0.50;;
15067;SDS011;7633;60.024;18.770;2023-03-25T01:19:53;1.20;;;0.80;;
15067;SDS011;7633;60.024;18.770;2023-03-25T01:22:18;0.60;;;0.60;;
15067;SDS011;7633;60.024;18.770;2023-03-25T01:24:44;0.80;;;0.73;;
15067;SDS011;7633;60.024;18.770;2023-03-25T01:27:11;0.67;;;0.60;;
15067;SDS011;7633;60.024;18.770;2023-03-25T01:29:36;1.00;;;0.90;;
15067;SDS011;7633;60.024;18.770;2023-03-25T01:32:05;1.37;;;0.80;;
15067;SDS011;7633;60.024;18.770;2023-03-25T01:34:31;0.77;;;0.70;;
15067;SDS011;7633;60.024;18.770;2023-03-25T01:36:58;1.93;;;1.10;;
15067;SDS011;7633;60.024;18.770;2023-03-25T01:39:25;1.17;;;1.07;;
15067;SDS011;7633;60.024;18.770;2023-03-25T01:41:50;1.60;;;1.00;;
15067;SDS011;7633;60.024;18.770;2023-03-25T01:47:02;0.97;;;0.53;;
15067;SDS011;7633;60.024;18.770;2023-03-25T01:49:43;1.40;;;1.13;;
15067;SDS011;7633;60.024;18.770;2023-03-25T01:52:14;1.37;;;1.00;;
15067;SDS011;7633;60.024;18.770;2023-03-25T01:54:42;2.40;;;1.17;;
15067;SDS011;7633;60.024;18.770;2023-03-25T01:57:12;1.47;;;1.13;;
15067;SDS011;7633;60.024;18.770;2023-03-25T01:59:45;2.20;;;1.30;;
15067;SDS011;7633;60.024;18.770;2023-03-25T02:02:11;2.63;;;1.47;;
15067;SDS011;7633;60.024;18.770;2023-03-25T02:04:59;1.90;;;1.20;;
15067;SDS011;7633;60.024;18.770;2023-03-25T02:07:32;2.20;;;1.57;;
15067;SDS011;7633;60.024;18.770;2023-03-25T02:10:03;2.67;;;1.40;;
15067;SDS011;7633;60.024;18.770;2023-03-25T02:12:31;1.37;;;1.00;;
15067;SDS011;7633;60.024;18.770;2023-03-25T02:14:59;2.00;;;1.50;;
15067;SDS011;7633;60.024;18.770;2023-03-25T02:17:53;1.60;;;1.50;;
15067;SDS011;7633;60.024;18.770;2023-03-25T02:21:06;1.80;;;1.50;;
15067;SDS011;7633;60.024;18.770;2023-03-25T02:23:32;1.63;;;1.23;;
15067;SDS011;7633;60.024;18.770;2023-03-25T02:26:17;3.63;;;1.43;;
15067;SDS011;7633;60.024;18.770;2023-03-25T02:28:53;1.50;;;1.20;;
15067;SDS011;7633;60.024;18.770;2023-03-25T02:42:03;1.00;;;0.67;;
15067;SDS011;7633;60.024;18.770;2023-03-25T02:44:40;1.60;;;1.30;;
15067;SDS011;7633;60.024;18.770;2023-03-25T02:47:14;2.57;;;1.70;;
15067;SDS011;7633;60.024;18.770;2023-03-25T02:49:51;2.10;;;1.63;;
15067;SDS011;7633;60.024;18.770;2023-03-25T02:52:30;3.07;;;1.87;;
15067;SDS011;7633;60.024;18.770;2023-03-25T02:54:58;2.33;;;1.43;;
15067;SDS011;7633;60.024;18.770;2023-03-25T02:57:26;3.53;;;1.60;;
15067;SDS011;7633;60.024;18.770;2023-03-25T02:59:55;2.83;;;1.90;;
15067;SDS011;7633;60.024;18.770;2023-03-25T03:02:23;3.27;;;1.90;;
15067;SDS011;7633;60.024;18.770;2023-03-25T03:07:20;2.97;;;1.73;;
15067;SDS011;7633;60.024;18.770;2023-03-25T03:09:49;5.27;;;2.20;;
15067;SDS011;7633;60.024;18.770;2023-03-25T03:15:19;3.17;;;1.93;;
15067;SDS011;7633;60.024;18.770;2023-03-25T03:20:32;4.80;;;2.00;;
15067;SDS011;7633;60.024;18.770;2023-03-25T03:25:33;2.03;;;1.83;;
15067;SDS011;7633;60.024;18.770;2023-03-25T03:30:43;4.03;;;2.07;;
15067;SDS011;7633;60.024;18.770;2023-03-25T03:33:29;3.30;;;1.83;;
15067;SDS011;7633;60.024;18.770;2023-03-25T03:36:00;2.30;;;1.70;;
15067;SDS011;7633;60.024;18.770;2023-03-25T03:38:37;3.73;;;1.43;;
15067;SDS011;7633;60.024;18.770;2023-03-25T03:41:05;2.57;;;1.23;;
15067;SDS011;7633;60.024;18.770;2023-03-25T03:43:34;2.83;;;1.87;;
15067;SDS011;7633;60.024;18.770;2023-03-25T03:46:04;2.43;;;1.67;;
15067;SDS011;7633;60.024;18.770;2023-03-25T03:48:37;3.00;;;1.90;;
15067;SDS011;7633;60.024;18.770;2023-03-25T03:51:12;2.40;;;1.77;;
15067;SDS011;7633;60.024;18.770;2023-03-25T03:53:53;2.50;;;1.80;;
15067;SDS011;7633;60.024;18.770;2023-03-25T03:56:33;2.00;;;1.80;;
15067;SDS011;7633;60.024;18.770;2023-03-25T03:59:03;3.50;;;2.37;;
15067;SDS011;7633;60.024;18.770;2023-03-25T04:01:32;2.57;;;1.87;;
15067;SDS011;7633;60.024;18.770;2023-03-25T04:04:00;3.77;;;1.70;;
15067;SDS011;7633;60.024;18.770;2023-03-25T04:06:34;3.77;;;1.83;;
15067;SDS011;7633;60.024;18.770;2023-03-25T04:11:55;3.63;;;2.13;;
15067;SDS011;7633;60.024;18.770;2023-03-25T04:14:22;4.00;;;1.60;;
15067;SDS011;7633;60.024;18.770;2023-03-25T04:16:47;2.57;;;1.90;;
15067;SDS011;7633;60.024;18.770;2023-03-25T04:19:12;2.60;;;2.07;;
15067;SDS011;7633;60.024;18.770;2023-03-25T04:21:42;5.67;;;2.20;;
15067;SDS011;7633;60.024;18.770;2023-03-25T04:24:08;2.33;;;1.60;;
15067;SDS011;7633;60.024;18.770;2023-03-25T04:26:33;3.97;;;1.67;;
15067;SDS011;7633;60.024;18.770;2023-03-25T04:29:02;3.17;;;1.77;;
15067;SDS011;7633;60.024;18.770;2023-03-25T04:31:28;2.63;;;1.63;;
15067;SDS011;7633;60.024;18.770;2023-03-25T04:33:55;2.13;;;1.53;;
15067;SDS011;7633;60.024;18.770;2023-03-25T04:36:21;5.27;;;1.63;;
15067;SDS011;7633;60.024;18.770;2023-03-25T04:38:46;2.67;;;1.60;;
15067;SDS011;7633;60.024;18.770;2023-03-25T04:41:12;4.13;;;2.17;;
15067;SDS011;7633;60.024;18.770;2023-03-25T04:43:39;2.30;;;1.73;;
15067;SDS011;7633;60.024;18.770;2023-03-25T04:46:04;2.30;;;1.43;;
15067;SDS011;7633;60.024;18.770;2023-03-25T04:48:30;4.07;;;1.83;;
15067;SDS011;7633;60.024;18.770;2023-03-25T04:50:58;4.67;;;2.27;;
15067;SDS011;7633;60.024;18.770;2023-03-25T04:53:24;2.73;;;1.53;;
15067;SDS011;7633;60.024;18.770;2023-03-25T04:55:51;2.83;;;1.70;;
15067;SDS011;7633;60.024;18.770;2023-03-25T04:58:16;3.47;;;1.67;;
15067;SDS011;7633;60.024;18.770;2023-03-25T05:00:45;1.10;;;0.97;;
15067;SDS011;7633;60.024;18.770;2023-03-25T05:03:13;3.23;;;1.63;;
15067;SDS011;7633;60.024;18.770;2023-03-25T05:05:40;1.87;;;1.70;;
15067;SDS011;7633;60.024;18.770;2023-03-25T05:08:05;2.40;;;1.90;;
15067;SDS011;7633;60.024;18.770;2023-03-25T05:10:31;3.37;;;2.13;;
15067;SDS011;7633;60.024;18.770;2023-03-25T05:13:02;3.40;;;1.80;;
15067;SDS011;7633;60.024;18.770;2023-03-25T05:15:29;4.23;;;2.10;;
15067;SDS011;7633;60.024;18.770;2023-03-25T05:17:56;3.00;;;2.13;;
15067;SDS011;7633;60.024;18.770;2023-03-25T05:20:21;3.10;;;2.17;;
15067;SDS011;7633;60.024;18.770;2023-03-25T05:22:47;4.17;;;1.80;;
15067;SDS011;7633;60.024;18.770;2023-03-25T05:25:12;3.27;;;1.93;;
15067;SDS011;7633;60.024;18.770;2023-03-25T05:27:37;2.97;;;1.80;;
15067;SDS011;7633;60.024;18.770;2023-03-25T05:30:03;1.93;;;1.77;;
15067;SDS011;7633;60.024;18.770;2023-03-25T05:32:29;3.63;;;1.90;;
15067;SDS011;7633;60.024;18.770;2023-03-25T05:34:57;4.13;;;2.43;;
15067;SDS011;7633;60.024;18.770;2023-03-25T05:37:24;2.13;;;1.80;;
15067;SDS011;7633;60.024;18.770;2023-03-25T05:39:50;2.50;;;1.90;;
15067;SDS011;7633;60.024;18.770;2023-03-25T05:42:16;3.57;;;1.90;;
15067;SDS011;7633;60.024;18.770;2023-03-25T05:44:41;3.17;;;2.13;;
15067;SDS011;7633;60.024;18.770;2023-03-25T05:47:15;4.40;;;2.07;;
15067;SDS011;7633;60.024;18.770;2023-03-25T05:49:41;3.00;;;1.90;;
15067;SDS011;7633;60.024;18.770;2023-03-25T05:52:07;3.23;;;2.10;;
15067;SDS011;7633;60.024;18.770;2023-03-25T05:54:33;3.07;;;1.73;;
15067;SDS011;7633;60.024;18.770;2023-03-25T05:57:03;3.27;;;2.30;;
15067;SDS011;7633;60.024;18.770;2023-03-25T05:59:28;5.27;;;2.30;;
15067;SDS011;7633;60.024;18.770;2023-03-25T06:01:53;3.17;;;1.83;;
15067;SDS011;7633;60.024;18.770;2023-03-25T06:04:19;3.70;;;2.27;;
15067;SDS011;7633;60.024;18.770;2023-03-25T06:06:45;2.23;;;2.00;;
15067;SDS011;7633;60.024;18.770;2023-03-25T06:09:11;3.30;;;2.50;;
15067;SDS011;7633;60.024;18.770;2023-03-25T06:11:37;3.33;;;2.30;;
15067;SDS011;7633;60.024;18.770;2023-03-25T06:14:03;3.83;;;2.20;;
15067;SDS011;7633;60.024;18.770;2023-03-25T06:16:28;2.47;;;1.87;;
15067;SDS011;7633;60.024;18.770;2023-03-25T06:18:54;2.70;;;2.00;;
15067;SDS011;7633;60.024;18.770;2023-03-25T06:21:32;3.63;;;2.27;;
15067;SDS011;7633;60.024;18.770;2023-03-25T06:23:58;2.40;;;1.70;;
15067;SDS011;7633;60.024;18.770;2023-03-25T06:26:25;2.30;;;1.90;;
15067;SDS011;7633;60.024;18.770;2023-03-25T06:28:51;2.53;;;1.83;;
15067;SDS011;7633;60.024;18.770;2023-03-25T06:31:20;1.80;;;1.70;;
15067;SDS011;7633;60.024;18.770;2023-03-25T06:33:47;3.90;;;1.80;;
15067;SDS011;7633;60.024;18.770;2023-03-25T06:36:13;2.97;;;1.90;;
15067;SDS011;7633;60.024;18.770;2023-03-25T06:38:39;2.07;;;1.90;;
15067;SDS011;7633;60.024;18.770;2023-03-25T06:41:05;2.60;;;2.07;;
15067;SDS011;7633;60.024;18.770;2023-03-25T06:43:31;3.10;;;2.20;;
15067;SDS011;7633;60.024;18.770;2023-03-25T06:45:56;3.53;;;1.80;;
15067;SDS011;7633;60.024;18.770;2023-03-25T06:48:22;1.90;;;1.80;;
15067;SDS011;7633;60.024;18.770;2023-03-25T06:50:47;2.10;;;1.90;;
15067;SDS011;7633;60.024;18.770;2023-03-25T06:53:13;2.23;;;1.70;;
15067;SDS011;7633;60.024;18.770;2023-03-25T06:55:38;3.07;;;2.03;;
15067;SDS011;7633;60.024;18.770;2023-03-25T06:58:05;2.17;;;1.50;;
15067;SDS011;7633;60.024;18.770;2023-03-25T07:00:31;2.47;;;1.70;;
15067;SDS011;7633;60.024;18.770;2023-03-25T07:02:56;1.93;;;1.60;;
15067;SDS011;7633;60.024;18.770;2023-03-25T07:05:25;2.23;;;1.50;;
15067;SDS011;7633;60.024;18.770;2023-03-25T07:07:51;2.13;;;1.40;;
15067;SDS011;7633;60.024;18.770;2023-03-25T07:10:16;1.67;;;1.57;;
15067;SDS011;7633;60.024;18.770;2023-03-25T07:12:41;2.37;;;1.50;;
15067;SDS011;7633;60.024;18.770;2023-03-25T07:15:07;2.90;;;1.47;;
15067;SDS011;7633;60.024;18.770;2023-03-25T07:17:32;1.97;;;1.47;;
15067;SDS011;7633;60.024;18.770;2023-03-25T07:19:58;1.53;;;1.43;;
15067;SDS011;7633;60.024;18.770;2023-03-25T07:22:24;2.60;;;1.70;;
15067;SDS011;7633;60.024;18.770;2023-03-25T07:24:49;3.83;;;1.80;;
15067;SDS011;7633;60.024;18.770;2023-03-25T07:27:16;2.97;;;1.40;;
15067;SDS011;7633;60.024;18.770;2023-03-25T07:29:41;1.40;;;1.30;;
15067;SDS011;7633;60.024;18.770;2023-03-25T07:32:07;4.13;;;1.83;;
15067;SDS011;7633;60.024;18.770;2023-03-25T07:34:32;3.27;;;1.67;;
15067;SDS011;7633;60.024;18.770;2023-03-25T07:36:57;2.87;;;1.50;;
15067;SDS011;7633;60.024;18.770;2023-03-25T07:39:26;1.90;;;1.40;;
15067;SDS011;7633;60.024;18.770;2023-03-25T07:41:59;3.07;;;1.20;;
15067;SDS011;7633;60.024;18.770;2023-03-25T07:44:32;3.70;;;1.40;;
15067;SDS011;7633;60.024;18.770;2023-03-25T07:47:01;1.43;;;1.20;;
15067;SDS011;7633;60.024;18.770;2023-03-25T07:49:26;3.50;;;1.57;;
15067;SDS011;7633;60.024;18.770;2023-03-25T07:51:54;2.73;;;1.40;;
15067;SDS011;7633;60.024;18.770;2023-03-25T07:54:28;2.27;;;1.30;;
15067;SDS011;7633;60.024;18.770;2023-03-25T07:57:02;2.63;;;1.30;;
15067;SDS011;7633;60.024;18.770;2023-03-25T07:59:32;1.40;;;0.93;;
15067;SDS011;7633;60.024;18.770;2023-03-25T08:01:57;1.63;;;1.10;;
15067;SDS011;7633;60.024;18.770;2023-03-25T08:04:22;1.20;;;1.10;;
15067;SDS011;7633;60.024;18.770;2023-03-25T08:06:47;2.97;;;1.33;;
15067;SDS011;7633;60.024;18.770;2023-03-25T08:09:13;1.70;;;0.90;;
15067;SDS011;7633;60.024;18.770;2023-03-25T08:11:38;2.77;;;1.17;;
15067;SDS011;7633;60.024;18.770;2023-03-25T08:14:04;1.80;;;1.03;;
15067;SDS011;7633;60.024;18.770;2023-03-25T08:16:30;1.90;;;1.20;;
15067;SDS011;7633;60.024;18.770;2023-03-25T08:18:58;2.63;;;1.17;;
15067;SDS011;7633;60.024;18.770;2023-03-25T08:21:25;1.13;;;1.00;;
15067;SDS011;7633;60.024;18.770;2023-03-25T08:23:53;1.17;;;1.07;;
15067;SDS011;7633;60.024;18.770;2023-03-25T08:26:25;4.60;;;1.20;;
15067;SDS011;7633;60.024;18.770;2023-03-25T08:28:51;2.13;;;1.00;;
15067;SDS011;7633;60.024;18.770;2023-03-25T08:31:19;1.23;;;0.90;;
15067;SDS011;7633;60.024;18.770;2023-03-25T08:33:45;3.27;;;1.30;;
15067;SDS011;7633;60.024;18.770;2023-03-25T08:36:11;1.20;;;0.97;;
15067;SDS011;7633;60.024;18.770;2023-03-25T08:38:39;1.70;;;1.20;;
15067;SDS011;7633;60.024;18.770;2023-03-25T08:41:04;1.20;;;1.10;;
15067;SDS011;7633;60.024;18.770;2023-03-25T08:43:30;1.23;;;1.10;;
15067;SDS011;7633;60.024;18.770;2023-03-25T08:45:55;2.23;;;1.10;;
15067;SDS011;7633;60.024;18.770;2023-03-25T08:48:21;3.50;;;1.30;;
15067;SDS011;7633;60.024;18.770;2023-03-25T08:50:47;2.73;;;1.17;;
15067;SDS011;7633;60.024;18.770;2023-03-25T08:53:12;1.57;;;1.10;;
15067;SDS011;7633;60.024;18.770;2023-03-25T08:55:37;1.30;;;1.20;;
15067;SDS011;7633;60.024;18.770;2023-03-25T08:58:03;1.40;;;1.30;;
15067;SDS011;7633;60.024;18.770;2023-03-25T09:00:28;3.13;;;1.20;;
15067;SDS011;7633;60.024;18.770;2023-03-25T09:02:55;3.27;;;1.27;;
15067;SDS011;7633;60.024;18.770;2023-03-25T09:05:25;3.57;;;1.10;;
15067;SDS011;7633;60.024;18.770;2023-03-25T09:07:57;1.40;;;1.30;;
15067;SDS011;7633;60.024;18.770;2023-03-25T09:10:25;1.10;;;1.00;;
15067;SDS011;7633;60.024;18.770;2023-03-25T09:12:53;1.40;;;1.30;;
15067;SDS011;7633;60.024;18.770;2023-03-25T09:15:18;1.60;;;0.90;;
15067;SDS011;7633;60.024;18.770;2023-03-25T09:17:45;0.97;;;0.97;;
15067;SDS011;7633;60.024;18.770;2023-03-25T09:20:12;2.47;;;1.47;;
15067;SDS011;7633;60.024;18.770;2023-03-25T09:22:38;2.90;;;1.17;;
15067;SDS011;7633;60.024;18.770;2023-03-25T09:25:04;2.07;;;1.40;;
15067;SDS011;7633;60.024;18.770;2023-03-25T09:27:31;1.47;;;1.20;;
15067;SDS011;7633;60.024;18.770;2023-03-25T09:29:56;1.47;;;1.37;;
15067;SDS011;7633;60.024;18.770;2023-03-25T09:32:22;2.50;;;1.53;;
15067;SDS011;7633;60.024;18.770;2023-03-25T09:34:47;1.43;;;1.23;;
15067;SDS011;7633;60.024;18.770;2023-03-25T09:37:12;1.57;;;1.10;;
15067;SDS011;7633;60.024;18.770;2023-03-25T09:39:38;2.90;;;1.30;;
15067;SDS011;7633;60.024;18.770;2023-03-25T09:47:16;1.63;;;1.33;;
15067;SDS011;7633;60.024;18.770;2023-03-25T09:49:44;1.63;;;1.50;;
15067;SDS011;7633;60.024;18.770;2023-03-25T09:52:14;1.30;;;1.17;;
15067;SDS011;7633;60.024;18.770;2023-03-25T09:54:43;1.33;;;1.13;;
15067;SDS011;7633;60.024;18.770;2023-03-25T09:57:13;1.23;;;1.13;;
15067;SDS011;7633;60.024;18.770;2023-03-25T09:59:43;2.20;;;1.50;;
15067;SDS011;7633;60.024;18.770;2023-03-25T10:07:21;1.93;;;1.00;;
15067;SDS011;7633;60.024;18.770;2023-03-25T10:09:54;2.67;;;1.30;;
15067;SDS011;7633;60.024;18.770;2023-03-25T10:12:29;1.63;;;1.37;;
15067;SDS011;7633;60.024;18.770;2023-03-25T10:15:14;1.47;;;1.37;;
15067;SDS011;7633;60.024;18.770;2023-03-25T10:20:36;2.13;;;1.30;;
15067;SDS011;7633;60.024;18.770;2023-03-25T10:25:59;1.50;;;1.40;;
15067;SDS011;7633;60.024;18.770;2023-03-25T10:28:29;1.80;;;1.60;;
15067;SDS011;7633;60.024;18.770;2023-03-25T10:30:57;3.03;;;1.50;;
15067;SDS011;7633;60.024;18.770;2023-03-25T10:35:49;1.97;;;1.40;;
15067;SDS011;7633;60.024;18.770;2023-03-25T10:38:20;1.73;;;1.53;;
15067;SDS011;7633;60.024;18.770;2023-03-25T10:40:51;1.53;;;1.40;;
15067;SDS011;7633;60.024;18.770;2023-03-25T10:45:50;2.70;;;1.50;;
15067;SDS011;7633;60.024;18.770;2023-03-25T10:48:35;1.83;;;1.20;;
15067;SDS011;7633;60.024;18.770;2023-03-25T10:51:22;2.40;;;1.30;;
15067;SDS011;7633;60.024;18.770;2023-03-25T10:53:49;3.60;;;1.30;;
15067;SDS011;7633;60.024;18.770;2023-03-25T10:56:30;1.70;;;1.33;;
15067;SDS011;7633;60.024;18.770;2023-03-25T10:58:59;2.63;;;1.67;;
15067;SDS011;7633;60.024;18.770;2023-03-25T11:01:45;1.57;;;1.20;;
15067;SDS011;7633;60.024;18.770;2023-03-25T11:04:16;3.50;;;2.10;;
15067;SDS011;7633;60.024;18.770;2023-03-25T11:06:50;2.43;;;1.53;;
15067;SDS011;7633;60.024;18.770;2023-03-25T11:09:23;2.20;;;1.40;;
15067;SDS011;7633;60.024;18.770;2023-03-25T11:11:51;3.20;;;1.50;;
15067;SDS011;7633;60.024;18.770;2023-03-25T11:14:25;5.40;;;4.37;;
15067;SDS011;7633;60.024;18.770;2023-03-25T11:19:25;1.90;;;1.37;;
15067;SDS011;7633;60.024;18.770;2023-03-25T11:21:52;1.80;;;1.50;;
15067;SDS011;7633;60.024;18.770;2023-03-25T11:24:19;1.30;;;1.20;;
15067;SDS011;7633;60.024;18.770;2023-03-25T11:26:47;2.83;;;1.50;;
15067;SDS011;7633;60.024;18.770;2023-03-25T11:29:14;1.50;;;1.20;;
15067;SDS011;7633;60.024;18.770;2023-03-25T11:31:41;1.63;;;1.30;;
15067;SDS011;7633;60.024;18.770;2023-03-25T11:36:36;2.60;;;1.53;;
15067;SDS011;7633;60.024;18.770;2023-03-25T11:39:16;2.43;;;1.43;;
15067;SDS011;7633;60.024;18.770;2023-03-25T11:41:42;1.70;;;1.43;;
15067;SDS011;7633;60.024;18.770;2023-03-25T11:44:14;1.80;;;1.30;;
15067;SDS011;7633;60.024;18.770;2023-03-25T11:46:42;1.60;;;1.30;;
15067;SDS011;7633;60.024;18.770;2023-03-25T11:49:09;2.47;;;1.10;;
15067;SDS011;7633;60.024;18.770;2023-03-25T11:51:36;1.27;;;1.17;;
15067;SDS011;7633;60.024;18.770;2023-03-25T11:54:02;2.17;;;1.20;;
15067;SDS011;7633;60.024;18.770;2023-03-25T11:56:34;2.87;;;1.77;;
15067;SDS011;7633;60.024;18.770;2023-03-25T11:59:01;3.13;;;1.23;;
15067;SDS011;7633;60.024;18.770;2023-03-25T12:04:06;2.10;;;1.10;;
15067;SDS011;7633;60.024;18.770;2023-03-25T12:06:32;1.53;;;1.13;;
15067;SDS011;7633;60.024;18.770;2023-03-25T12:08:58;2.10;;;1.23;;
15067;SDS011;7633;60.024;18.770;2023-03-25T12:18:58;1.43;;;1.33;;
15067;SDS011;7633;60.024;18.770;2023-03-25T12:26:36;2.73;;;1.70;;
15067;SDS011;7633;60.024;18.770;2023-03-25T12:29:23;2.17;;;1.70;;
15067;SDS011;7633;60.024;18.770;2023-03-25T12:32:05;2.57;;;1.40;;
15067;SDS011;7633;60.024;18.770;2023-03-25T12:35:04;4.10;;;1.57;;
15067;SDS011;7633;60.024;18.770;2023-03-25T12:45:27;2.13;;;1.10;;
15067;SDS011;7633;60.024;18.770;2023-03-25T12:48:10;2.30;;;1.87;;
15067;SDS011;7633;60.024;18.770;2023-03-25T12:50:46;4.00;;;1.90;;
15067;SDS011;7633;60.024;18.770;2023-03-25T12:53:35;3.80;;;1.57;;
15067;SDS011;7633;60.024;18.770;2023-03-25T12:56:05;2.70;;;1.30;;
15067;SDS011;7633;60.024;18.770;2023-03-25T13:07:13;3.60;;;1.50;;
15067;SDS011;7633;60.024;18.770;2023-03-25T13:12:12;2.97;;;1.50;;
15067;SDS011;7633;60.024;18.770;2023-03-25T13:15:04;1.40;;;1.30;;
15067;SDS011;7633;60.024;18.770;2023-03-25T13:17:47;2.00;;;1.57;;
15067;SDS011;7633;60.024;18.770;2023-03-25T13:20:16;3.53;;;1.90;;
15067;SDS011;7633;60.024;18.770;2023-03-25T13:22:47;1.70;;;1.57;;
15067;SDS011;7633;60.024;18.770;2023-03-25T13:26:01;1.97;;;1.40;;
15067;SDS011;7633;60.024;18.770;2023-03-25T13:28:10;1.43;;;1.20;;
15067;SDS011;7633;60.024;18.770;2023-03-25T13:30:40;3.43;;;1.40;;
15067;SDS011;7633;60.024;18.770;2023-03-25T13:33:10;1.97;;;1.60;;
15067;SDS011;7633;60.024;18.770;2023-03-25T13:35:43;3.27;;;1.50;;
15067;SDS011;7633;60.024;18.770;2023-03-25T13:38:13;2.30;;;1.53;;
15067;SDS011;7633;60.024;18.770;2023-03-25T13:46:23;1.40;;;1.30;;
15067;SDS011;7633;60.024;18.770;2023-03-25T13:49:04;1.73;;;1.30;;
15067;SDS011;7633;60.024;18.770;2023-03-25T13:51:30;2.27;;;1.20;;
15067;SDS011;7633;60.024;18.770;2023-03-25T13:54:01;2.07;;;1.30;;
15067;SDS011;7633;60.024;18.770;2023-03-25T13:56:43;2.07;;;1.20;;
15067;SDS011;7633;60.024;18.770;2023-03-25T14:14:48;2.60;;;1.97;;
15067;SDS011;7633;60.024;18.770;2023-03-25T14:17:15;3.03;;;2.30;;
15067;SDS011;7633;60.024;18.770;2023-03-25T14:19:49;2.30;;;1.20;;
15067;SDS011;7633;60.024;18.770;2023-03-25T14:22:23;2.03;;;1.37;;
15067;SDS011;7633;60.024;18.770;2023-03-25T14:24:52;1.23;;;0.90;;
15067;SDS011;7633;60.024;18.770;2023-03-25T14:29:51;2.10;;;1.63;;
15067;SDS011;7633;60.024;18.770;2023-03-25T14:34:44;1.57;;;1.00;;
15067;SDS011;7633;60.024;18.770;2023-03-25T14:37:25;0.87;;;0.77;;
15067;SDS011;7633;60.024;18.770;2023-03-25T14:39:56;2.67;;;1.00;;
15067;SDS011;7633;60.024;18.770;2023-03-25T14:42:27;3.17;;;0.90;;
15067;SDS011;7633;60.024;18.770;2023-03-25T14:44:53;1.73;;;0.90;;
15067;SDS011;7633;60.024;18.770;2023-03-25T14:47:50;0.80;;;0.73;;
15067;SDS011;7633;60.024;18.770;2023-03-25T14:52:48;2.20;;;1.20;;
15067;SDS011;7633;60.024;18.770;2023-03-25T14:55:17;1.87;;;0.80;;
15067;SDS011;7633;60.024;18.770;2023-03-25T14:57:44;1.30;;;0.70;;
15067;SDS011;7633;60.024;18.770;2023-03-25T15:00:22;0.90;;;0.90;;
15067;SDS011;7633;60.024;18.770;2023-03-25T15:02:50;1.50;;;1.20;;
15067;SDS011;7633;60.024;18.770;2023-03-25T15:05:18;0.83;;;0.60;;
15067;SDS011;7633;60.024;18.770;2023-03-25T15:07:50;1.77;;;0.90;;
15067;SDS011;7633;60.024;18.770;2023-03-25T15:10:23;2.40;;;0.97;;
15067;SDS011;7633;60.024;18.770;2023-03-25T15:13:12;1.50;;;0.70;;
15067;SDS011;7633;60.024;18.770;2023-03-25T15:18:10;1.00;;;0.67;;
15067;SDS011;7633;60.024;18.770;2023-03-25T15:20:36;0.93;;;0.60;;
15067;SDS011;7633;60.024;18.770;2023-03-25T15:25:42;1.77;;;0.80;;
15067;SDS011;7633;60.024;18.770;2023-03-25T15:28:53;1.90;;;0.73;;
15067;SDS011;7633;60.024;18.770;2023-03-25T15:33:30;0.83;;;0.83;;
15067;SDS011;7633;60.024;18.770;2023-03-25T15:56:05;1.10;;;0.70;;
15067;SDS011;7633;60.024;18.770;2023-03-25T15:58:36;1.23;;;0.80;;
15067;SDS011;7633;60.024;18.770;2023-03-25T16:01:17;1.33;;;1.00;;
15067;SDS011;7633;60.024;18.770;2023-03-25T16:03:52;2.60;;;0.77;;
15067;SDS011;7633;60.024;18.770;2023-03-25T16:06:20;2.47;;;0.90;;
15067;SDS011;7633;60.024;18.770;2023-03-25T16:08:46;1.27;;;1.00;;
15067;SDS011;7633;60.024;18.770;2023-03-25T16:13:39;1.07;;;0.80;;
15067;SDS011;7633;60.024;18.770;2023-03-25T16:16:05;1.70;;;0.70;;
15067;SDS011;7633;60.024;18.770;2023-03-25T16:18:32;1.43;;;0.67;;
15067;SDS011;7633;60.024;18.770;2023-03-25T16:20:59;0.93;;;0.60;;
15067;SDS011;7633;60.024;18.770;2023-03-25T16:23:25;1.13;;;0.63;;
15067;SDS011;7633;60.024;18.770;2023-03-25T16:25:51;0.80;;;0.50;;
15067;SDS011;7633;60.024;18.770;2023-03-25T16:28:17;0.80;;;0.63;;
15067;SDS011;7633;60.024;18.770;2023-03-25T16:30:47;2.03;;;0.63;;
15067;SDS011;7633;60.024;18.770;2023-03-25T16:33:14;0.93;;;0.70;;
15067;SDS011;7633;60.024;18.770;2023-03-25T16:36:00;1.47;;;0.80;;
15067;SDS011;7633;60.024;18.770;2023-03-25T16:38:26;1.37;;;0.80;;
15067;SDS011;7633;60.024;18.770;2023-03-25T16:41:02;0.63;;;0.57;;
15067;SDS011;7633;60.024;18.770;2023-03-25T16:43:29;0.70;;;0.60;;
15067;SDS011;7633;60.024;18.770;2023-03-25T16:46:04;1.40;;;0.60;;
15067;SDS011;7633;60.024;18.770;2023-03-25T16:48:35;1.30;;;0.70;;
15067;SDS011;7633;60.024;18.770;2023-03-25T16:51:04;0.97;;;0.50;;
15067;SDS011;7633;60.024;18.770;2023-03-25T16:53:30;0.63;;;0.40;;
15067;SDS011;7633;60.024;18.770;2023-03-25T16:56:40;0.63;;;0.60;;
15067;SDS011;7633;60.024;18.770;2023-03-25T16:58:49;0.80;;;0.60;;
15067;SDS011;7633;60.024;18.770;2023-03-25T17:01:17;7.07;;;5.70;;
15067;SDS011;7633;60.024;18.770;2023-03-25T17:03:46;2.50;;;0.80;;
15067;SDS011;7633;60.024;18.770;2023-03-25T17:08:38;1.27;;;0.53;;
15067;SDS011;7633;60.024;18.770;2023-03-25T17:11:04;1.03;;;0.70;;
15067;SDS011;7633;60.024;18.770;2023-03-25T17:13:40;1.57;;;0.80;;
15067;SDS011;7633;60.024;18.770;2023-03-25T17:16:06;2.73;;;0.83;;
15067;SDS011;7633;60.024;18.770;2023-03-25T17:18:32;1.23;;;0.60;;
15067;SDS011;7633;60.024;18.770;2023-03-25T17:21:00;0.60;;;0.50;;
15067;SDS011;7633;60.024;18.770;2023-03-25T17:23:32;1.47;;;0.80;;
15067;SDS011;7633;60.024;18.770;2023-03-25T17:26:09;1.00;;;0.70;;
15067;SDS011;7633;60.024;18.770;2023-03-25T17:28:42;1.20;;;0.60;;
15067;SDS011;7633;60.024;18.770;2023-03-25T17:34:10;3.43;;;0.77;;
15067;SDS011;7633;60.024;18.770;2023-03-25T17:36:36;0.87;;;0.73;;